sensor_id;sensor_type;location;lat;lon;timestamp;pressure;altitude;pressure_sealevel;temperature;humidity
56142;BME280;42018;48.588;10.836;2023-05-29T00:01:53;96757.34;;;15.60;52.72
56142;BME280;42018;48.588;10.836;2023-05-29T00:04:39;96760.59;;;15.43;53.16
56142;BME280;42018;48.588;10.836;2023-05-29T00:07:25;96753.53;;;15.33;53.72
56142;BME280;42018;48.588;10.836;2023-05-29T00:10:11;96760.16;;;15.22;54.13
56142;BME280;42018;48.588;10.836;2023-05-29T00:12:57;96759.97;;;15.18;54.41
56142;BME280;42018;48.588;10.836;2023-05-29T00:15:43;96757.88;;;15.15;54.12
56142;BME280;42018;48.588;10.836;2023-05-29T00:18:29;96752.75;;;15.05;54.26
56142;BME280;42018;48.588;10.836;2023-05-29T00:21:14;96757.09;;;15.15;54.28
56142;BME280;42018;48.588;10.836;2023-05-29T00:23:59;96760.84;;;15.14;54.29
56142;BME280;42018;48.588;10.836;2023-05-29T00:26:45;96756.81;;;15.16;54.06
56142;BME280;42018;48.588;10.836;2023-05-29T00:29:31;96757.22;;;15.37;53.48
56142;BME280;42018;48.588;10.836;2023-05-29T00:32:16;96756.00;;;15.29;53.40
56142;BME280;42018;48.588;10.836;2023-05-29T00:35:01;96756.03;;;15.43;53.28
56142;BME280;42018;48.588;10.836;2023-05-29T00:37:47;96754.47;;;15.56;52.93
56142;BME280;42018;48.588;10.836;2023-05-29T00:40:33;96759.09;;;15.64;52.55
56142;BME280;42018;48.588;10.836;2023-05-29T00:43:18;96759.06;;;15.69;52.36
56142;BME280;42018;48.588;10.836;2023-05-29T00:46:04;96754.56;;;15.65;52.18
56142;BME280;42018;48.588;10.836;2023-05-29T00:48:49;96758.31;;;15.36;53.07
56142;BME280;42018;48.588;10.836;2023-05-29T00:51:35;96749.19;;;15.09;53.69
56142;BME280;42018;48.588;10.836;2023-05-29T00:54:25;96760.78;;;14.86;54.30
56142;BME280;42018;48.588;10.836;2023-05-29T00:57:13;96761.22;;;14.74;54.41
56142;BME280;42018;48.588;10.836;2023-05-29T01:00:00;96759.16;;;14.71;54.46
56142;BME280;42018;48.588;10.836;2023-05-29T01:02:46;96755.22;;;14.50;54.89
56142;BME280;42018;48.588;10.836;2023-05-29T01:05:33;96751.44;;;14.51;54.84
56142;BME280;42018;48.588;10.836;2023-05-29T01:08:20;96758.41;;;14.47;55.02
56142;BME280;42018;48.588;10.836;2023-05-29T01:11:17;96757.72;;;14.41;54.93
56142;BME280;42018;48.588;10.836;2023-05-29T01:14:08;96756.84;;;14.46;54.98
56142;BME280;42018;48.588;10.836;2023-05-29T01:17:03;96755.06;;;14.41;54.67
56142;BME280;42018;48.588;10.836;2023-05-29T01:20:07;96759.00;;;14.25;55.51
56142;BME280;42018;48.588;10.836;2023-05-29T01:29:06;96751.00;;;14.06;55.91
56142;BME280;42018;48.588;10.836;2023-05-29T01:31:52;96754.25;;;14.03;55.96
56142;BME280;42018;48.588;10.836;2023-05-29T01:34:41;96753.97;;;14.23;55.31
56142;BME280;42018;48.588;10.836;2023-05-29T01:37:26;96752.88;;;14.24;55.51
56142;BME280;42018;48.588;10.836;2023-05-29T01:40:12;96755.47;;;14.29;55.36
56142;BME280;42018;48.588;10.836;2023-05-29T01:42:58;96747.41;;;14.34;55.38
56142;BME280;42018;48.588;10.836;2023-05-29T01:45:44;96750.41;;;14.52;55.32
56142;BME280;42018;48.588;10.836;2023-05-29T01:48:29;96756.06;;;14.64;54.68
56142;BME280;42018;48.588;10.836;2023-05-29T01:51:15;96753.88;;;14.47;54.73
56142;BME280;42018;48.588;10.836;2023-05-29T01:54:01;96757.19;;;14.39;55.03
56142;BME280;42018;48.588;10.836;2023-05-29T01:56:47;96764.78;;;14.51;54.70
56142;BME280;42018;48.588;10.836;2023-05-29T01:59:33;96756.56;;;14.66;54.57
56142;BME280;42018;48.588;10.836;2023-05-29T02:02:21;96750.94;;;14.68;54.18
56142;BME280;42018;48.588;10.836;2023-05-29T02:05:08;96743.03;;;14.63;54.14
56142;BME280;42018;48.588;10.836;2023-05-29T02:07:53;96748.41;;;14.38;54.85
56142;BME280;42018;48.588;10.836;2023-05-29T02:10:39;96754.25;;;14.22;55.14
56142;BME280;42018;48.588;10.836;2023-05-29T02:13:24;96747.59;;;14.19;55.44
56142;BME280;42018;48.588;10.836;2023-05-29T02:16:10;96746.81;;;14.00;55.71
56142;BME280;42018;48.588;10.836;2023-05-29T02:18:55;96751.78;;;13.87;56.51
56142;BME280;42018;48.588;10.836;2023-05-29T02:21:40;96746.38;;;13.93;56.13
56142;BME280;42018;48.588;10.836;2023-05-29T02:24:26;96750.97;;;13.87;56.15
56142;BME280;42018;48.588;10.836;2023-05-29T02:27:11;96749.16;;;13.82;56.53
56142;BME280;42018;48.588;10.836;2023-05-29T02:29:56;96755.00;;;13.84;56.20
56142;BME280;42018;48.588;10.836;2023-05-29T02:32:43;96754.06;;;13.94;56.34
56142;BME280;42018;48.588;10.836;2023-05-29T02:35:28;96750.94;;;14.11;55.87
56142;BME280;42018;48.588;10.836;2023-05-29T02:38:14;96751.81;;;14.06;56.00
56142;BME280;42018;48.588;10.836;2023-05-29T02:41:00;96758.94;;;14.11;56.03
56142;BME280;42018;48.588;10.836;2023-05-29T02:43:45;96762.47;;;14.25;55.93
56142;BME280;42018;48.588;10.836;2023-05-29T02:46:30;96758.66;;;14.31;55.70
56142;BME280;42018;48.588;10.836;2023-05-29T02:49:16;96753.53;;;14.35;55.52
56142;BME280;42018;48.588;10.836;2023-05-29T02:52:01;96758.69;;;14.26;55.67
56142;BME280;42018;48.588;10.836;2023-05-29T02:54:47;96753.88;;;14.28;55.76
56142;BME280;42018;48.588;10.836;2023-05-29T02:57:32;96755.25;;;14.45;55.18
56142;BME280;42018;48.588;10.836;2023-05-29T03:00:18;96759.97;;;14.53;55.04
56142;BME280;42018;48.588;10.836;2023-05-29T03:03:03;96757.41;;;14.61;54.58
56142;BME280;42018;48.588;10.836;2023-05-29T03:05:49;96755.63;;;14.57;53.92
56142;BME280;42018;48.588;10.836;2023-05-29T03:08:35;96764.84;;;14.46;54.31
56142;BME280;42018;48.588;10.836;2023-05-29T03:11:25;96764.69;;;14.37;54.54
56142;BME280;42018;48.588;10.836;2023-05-29T03:14:10;96768.75;;;14.34;54.49
56142;BME280;42018;48.588;10.836;2023-05-29T03:16:55;96761.00;;;14.33;54.65
56142;BME280;42018;48.588;10.836;2023-05-29T03:19:41;96758.69;;;14.26;54.83
56142;BME280;42018;48.588;10.836;2023-05-29T03:22:26;96757.91;;;14.07;55.40
56142;BME280;42018;48.588;10.836;2023-05-29T03:25:12;96764.91;;;14.03;55.69
56142;BME280;42018;48.588;10.836;2023-05-29T03:27:57;96762.59;;;14.15;55.45
56142;BME280;42018;48.588;10.836;2023-05-29T03:30:42;96752.88;;;14.24;55.16
56142;BME280;42018;48.588;10.836;2023-05-29T03:33:28;96759.22;;;14.28;55.14
56142;BME280;42018;48.588;10.836;2023-05-29T03:36:13;96764.19;;;14.35;55.10
56142;BME280;42018;48.588;10.836;2023-05-29T03:38:59;96755.25;;;14.26;54.89
56142;BME280;42018;48.588;10.836;2023-05-29T03:41:44;96755.97;;;14.31;54.70
56142;BME280;42018;48.588;10.836;2023-05-29T03:44:29;96760.66;;;14.21;55.68
56142;BME280;42018;48.588;10.836;2023-05-29T03:47:15;96757.91;;;14.26;55.01
56142;BME280;42018;48.588;10.836;2023-05-29T03:50:00;96758.34;;;14.14;55.67
56142;BME280;42018;48.588;10.836;2023-05-29T03:52:46;96760.72;;;14.16;55.57
56142;BME280;42018;48.588;10.836;2023-05-29T03:55:31;96760.16;;;14.19;55.77
56142;BME280;42018;48.588;10.836;2023-05-29T03:58:17;96754.50;;;14.01;56.14
56142;BME280;42018;48.588;10.836;2023-05-29T04:01:02;96761.00;;;14.14;56.33
56142;BME280;42018;48.588;10.836;2023-05-29T04:03:47;96765.03;;;14.11;56.29
56142;BME280;42018;48.588;10.836;2023-05-29T04:06:33;96764.25;;;14.11;56.67
56142;BME280;42018;48.588;10.836;2023-05-29T04:09:18;96767.56;;;14.22;56.15
56142;BME280;42018;48.588;10.836;2023-05-29T04:12:04;96774.13;;;14.29;56.10
56142;BME280;42018;48.588;10.836;2023-05-29T04:14:50;96775.84;;;14.39;55.56
56142;BME280;42018;48.588;10.836;2023-05-29T04:17:36;96781.91;;;14.26;56.24
56142;BME280;42018;48.588;10.836;2023-05-29T04:20:21;96783.19;;;14.09;57.13
56142;BME280;42018;48.588;10.836;2023-05-29T04:23:07;96783.50;;;14.27;56.92
56142;BME280;42018;48.588;10.836;2023-05-29T04:25:52;96785.72;;;14.38;56.58
56142;BME280;42018;48.588;10.836;2023-05-29T04:28:38;96795.75;;;14.28;56.43
56142;BME280;42018;48.588;10.836;2023-05-29T04:31:25;96795.38;;;14.34;56.50
56142;BME280;42018;48.588;10.836;2023-05-29T04:34:10;96796.19;;;14.54;56.06
56142;BME280;42018;48.588;10.836;2023-05-29T04:36:57;96803.47;;;14.67;55.96
56142;BME280;42018;48.588;10.836;2023-05-29T04:39:43;96803.53;;;14.62;55.28
56142;BME280;42018;48.588;10.836;2023-05-29T04:42:28;96801.31;;;14.69;55.69
56142;BME280;42018;48.588;10.836;2023-05-29T04:45:20;96801.09;;;14.84;55.97
56142;BME280;42018;48.588;10.836;2023-05-29T04:48:08;96808.34;;;14.98;55.68
56142;BME280;42018;48.588;10.836;2023-05-29T04:50:54;96807.38;;;15.07;55.14
56142;BME280;42018;48.588;10.836;2023-05-29T04:53:40;96807.59;;;15.11;55.01
56142;BME280;42018;48.588;10.836;2023-05-29T04:56:26;96810.66;;;15.18;53.51
56142;BME280;42018;48.588;10.836;2023-05-29T04:59:12;96823.53;;;15.16;53.26
56142;BME280;42018;48.588;10.836;2023-05-29T05:01:57;96823.38;;;15.07;54.11
56142;BME280;42018;48.588;10.836;2023-05-29T05:04:43;96829.94;;;15.15;54.37
56142;BME280;42018;48.588;10.836;2023-05-29T05:07:28;96826.63;;;15.23;54.14
56142;BME280;42018;48.588;10.836;2023-05-29T05:10:14;96831.16;;;15.23;54.50
56142;BME280;42018;48.588;10.836;2023-05-29T05:12:59;96831.44;;;15.21;54.03
56142;BME280;42018;48.588;10.836;2023-05-29T05:15:46;96831.16;;;15.37;54.04
56142;BME280;42018;48.588;10.836;2023-05-29T05:18:32;96835.56;;;15.46;53.96
56142;BME280;42018;48.588;10.836;2023-05-29T05:21:17;96829.41;;;15.46;53.91
56142;BME280;42018;48.588;10.836;2023-05-29T05:24:03;96827.06;;;15.58;53.65
56142;BME280;42018;48.588;10.836;2023-05-29T05:26:50;96826.06;;;15.54;53.78
56142;BME280;42018;48.588;10.836;2023-05-29T05:29:36;96831.44;;;15.68;53.57
56142;BME280;42018;48.588;10.836;2023-05-29T05:32:21;96826.41;;;15.66;53.62
56142;BME280;42018;48.588;10.836;2023-05-29T05:35:07;96835.41;;;15.70;53.71
56142;BME280;42018;48.588;10.836;2023-05-29T05:37:55;96835.63;;;15.74;54.11
56142;BME280;42018;48.588;10.836;2023-05-29T05:40:43;96839.59;;;15.76;54.14
56142;BME280;42018;48.588;10.836;2023-05-29T05:43:29;96832.78;;;15.65;54.66
56142;BME280;42018;48.588;10.836;2023-05-29T05:46:15;96840.00;;;15.84;54.19
56142;BME280;42018;48.588;10.836;2023-05-29T05:49:02;96843.06;;;15.91;53.39
56142;BME280;42018;48.588;10.836;2023-05-29T05:51:47;96847.69;;;15.85;53.94
56142;BME280;42018;48.588;10.836;2023-05-29T05:54:33;96850.09;;;15.87;54.09
56142;BME280;42018;48.588;10.836;2023-05-29T05:57:18;96854.53;;;16.05;54.80
56142;BME280;42018;48.588;10.836;2023-05-29T06:00:04;96858.28;;;16.04;54.83
56142;BME280;42018;48.588;10.836;2023-05-29T06:02:53;96854.63;;;16.00;54.59
56142;BME280;42018;48.588;10.836;2023-05-29T06:05:38;96852.53;;;16.11;54.17
56142;BME280;42018;48.588;10.836;2023-05-29T06:08:26;96857.50;;;16.17;53.82
56142;BME280;42018;48.588;10.836;2023-05-29T06:11:11;96859.25;;;16.22;54.26
56142;BME280;42018;48.588;10.836;2023-05-29T06:13:57;96859.78;;;16.24;54.18
56142;BME280;42018;48.588;10.836;2023-05-29T06:16:42;96861.13;;;16.35;54.79
56142;BME280;42018;48.588;10.836;2023-05-29T06:19:28;96861.53;;;16.42;54.49
56142;BME280;42018;48.588;10.836;2023-05-29T06:22:18;96861.50;;;16.56;54.14
56142;BME280;42018;48.588;10.836;2023-05-29T06:25:03;96876.97;;;16.45;54.64
56142;BME280;42018;48.588;10.836;2023-05-29T06:27:49;96873.38;;;16.64;53.93
56142;BME280;42018;48.588;10.836;2023-05-29T06:30:34;96876.16;;;16.72;53.22
56142;BME280;42018;48.588;10.836;2023-05-29T06:33:20;96880.22;;;16.84;52.47
56142;BME280;42018;48.588;10.836;2023-05-29T06:36:06;96887.69;;;16.95;52.41
56142;BME280;42018;48.588;10.836;2023-05-29T06:38:52;96879.59;;;16.87;52.68
56142;BME280;42018;48.588;10.836;2023-05-29T06:41:37;96879.09;;;16.85;52.53
56142;BME280;42018;48.588;10.836;2023-05-29T06:44:23;96883.22;;;17.05;50.66
56142;BME280;42018;48.588;10.836;2023-05-29T06:47:08;96879.56;;;17.23;49.35
56142;BME280;42018;48.588;10.836;2023-05-29T06:49:53;96885.50;;;17.42;49.23
56142;BME280;42018;48.588;10.836;2023-05-29T06:52:39;96880.94;;;17.65;49.59
56142;BME280;42018;48.588;10.836;2023-05-29T06:55:25;96885.75;;;17.77;49.03
56142;BME280;42018;48.588;10.836;2023-05-29T06:58:11;96888.16;;;17.87;49.01
56142;BME280;42018;48.588;10.836;2023-05-29T07:00:57;96887.38;;;17.87;50.12
56142;BME280;42018;48.588;10.836;2023-05-29T07:03:43;96891.03;;;17.91;47.55
56142;BME280;42018;48.588;10.836;2023-05-29T07:06:28;96892.31;;;18.02;47.10
56142;BME280;42018;48.588;10.836;2023-05-29T07:09:13;96898.53;;;18.11;48.27
56142;BME280;42018;48.588;10.836;2023-05-29T07:11:59;96891.13;;;18.17;48.27
56142;BME280;42018;48.588;10.836;2023-05-29T07:14:47;96887.53;;;18.39;48.52
56142;BME280;42018;48.588;10.836;2023-05-29T07:17:33;96884.59;;;18.58;48.80
56142;BME280;42018;48.588;10.836;2023-05-29T07:20:18;96883.66;;;18.62;48.48
56142;BME280;42018;48.588;10.836;2023-05-29T07:23:05;96884.66;;;18.84;47.93
56142;BME280;42018;48.588;10.836;2023-05-29T07:25:50;96885.94;;;18.95;46.76
56142;BME280;42018;48.588;10.836;2023-05-29T07:28:36;96893.19;;;18.95;45.08
56142;BME280;42018;48.588;10.836;2023-05-29T07:31:21;96889.88;;;19.06;44.46
56142;BME280;42018;48.588;10.836;2023-05-29T07:34:07;96897.63;;;19.34;44.63
56142;BME280;42018;48.588;10.836;2023-05-29T07:37:10;96895.88;;;19.29;43.67
56142;BME280;42018;48.588;10.836;2023-05-29T07:39:56;96896.66;;;19.38;43.96
56142;BME280;42018;48.588;10.836;2023-05-29T07:42:41;96889.03;;;19.49;43.31
56142;BME280;42018;48.588;10.836;2023-05-29T07:45:27;96890.47;;;19.55;42.32
56142;BME280;42018;48.588;10.836;2023-05-29T07:48:15;96890.34;;;19.34;42.14
56142;BME280;42018;48.588;10.836;2023-05-29T07:51:01;96890.34;;;19.43;42.24
56142;BME280;42018;48.588;10.836;2023-05-29T07:53:46;96887.47;;;19.48;41.82
56142;BME280;42018;48.588;10.836;2023-05-29T07:56:32;96892.50;;;19.67;41.76
56142;BME280;42018;48.588;10.836;2023-05-29T07:59:19;96901.31;;;19.85;41.16
56142;BME280;42018;48.588;10.836;2023-05-29T08:02:05;96901.28;;;20.02;41.17
56142;BME280;42018;48.588;10.836;2023-05-29T08:05:00;96898.63;;;20.32;41.09
56142;BME280;42018;48.588;10.836;2023-05-29T08:07:45;96894.91;;;20.45;39.73
56142;BME280;42018;48.588;10.836;2023-05-29T08:10:32;96900.31;;;20.75;40.40
56142;BME280;42018;48.588;10.836;2023-05-29T08:13:17;96895.19;;;20.82;39.51
56142;BME280;42018;48.588;10.836;2023-05-29T08:16:06;96897.59;;;20.54;38.71
56142;BME280;42018;48.588;10.836;2023-05-29T08:18:55;96893.91;;;20.59;38.71
56142;BME280;42018;48.588;10.836;2023-05-29T08:21:43;96899.41;;;20.92;39.97
56142;BME280;42018;48.588;10.836;2023-05-29T08:24:31;96892.81;;;21.22;39.45
56142;BME280;42018;48.588;10.836;2023-05-29T08:27:20;96889.94;;;21.27;39.69
56142;BME280;42018;48.588;10.836;2023-05-29T08:30:05;96886.22;;;21.32;38.74
56142;BME280;42018;48.588;10.836;2023-05-29T08:32:51;96894.50;;;21.27;38.58
56142;BME280;42018;48.588;10.836;2023-05-29T08:35:36;96877.91;;;21.46;38.64
56142;BME280;42018;48.588;10.836;2023-05-29T08:38:22;96884.06;;;21.46;39.11
56142;BME280;42018;48.588;10.836;2023-05-29T08:41:25;96881.88;;;21.61;38.45
56142;BME280;42018;48.588;10.836;2023-05-29T08:44:13;96886.38;;;21.69;38.54
56142;BME280;42018;48.588;10.836;2023-05-29T08:47:03;96885.41;;;21.86;37.17
56142;BME280;42018;48.588;10.836;2023-05-29T08:49:52;96888.81;;;21.62;36.03
56142;BME280;42018;48.588;10.836;2023-05-29T08:52:39;96880.59;;;22.04;36.26
56142;BME280;42018;48.588;10.836;2023-05-29T08:55:25;96879.72;;;22.36;36.91
56142;BME280;42018;48.588;10.836;2023-05-29T08:58:11;96879.59;;;22.57;35.59
56142;BME280;42018;48.588;10.836;2023-05-29T09:00:57;96882.16;;;22.66;35.59
56142;BME280;42018;48.588;10.836;2023-05-29T09:03:42;96895.44;;;22.59;33.64
56142;BME280;42018;48.588;10.836;2023-05-29T09:06:28;96883.03;;;22.82;34.85
56142;BME280;42018;48.588;10.836;2023-05-29T09:09:13;96884.84;;;23.03;35.72
56142;BME280;42018;48.588;10.836;2023-05-29T09:12:15;96886.22;;;22.84;34.51
56142;BME280;42018;48.588;10.836;2023-05-29T09:15:07;96885.84;;;23.26;34.21
56142;BME280;42018;48.588;10.836;2023-05-29T09:17:55;96891.72;;;23.56;34.76
56142;BME280;42018;48.588;10.836;2023-05-29T09:20:42;96889.91;;;23.32;33.53
56142;BME280;42018;48.588;10.836;2023-05-29T09:23:30;96887.19;;;23.32;33.98
56142;BME280;42018;48.588;10.836;2023-05-29T09:26:16;96888.84;;;23.65;34.40
56142;BME280;42018;48.588;10.836;2023-05-29T09:29:02;96882.34;;;23.82;34.53
56142;BME280;42018;48.588;10.836;2023-05-29T09:31:50;96884.47;;;24.20;35.77
56142;BME280;42018;48.588;10.836;2023-05-29T09:34:36;96889.63;;;24.09;32.89
56142;BME280;42018;48.588;10.836;2023-05-29T09:37:21;96885.59;;;24.35;32.93
56142;BME280;42018;48.588;10.836;2023-05-29T09:40:10;96885.13;;;24.33;32.48
56142;BME280;42018;48.588;10.836;2023-05-29T09:43:02;96888.81;;;24.56;32.04
56142;BME280;42018;48.588;10.836;2023-05-29T09:45:52;96889.72;;;24.45;31.94
56142;BME280;42018;48.588;10.836;2023-05-29T09:48:38;96889.59;;;24.57;31.35
56142;BME280;42018;48.588;10.836;2023-05-29T09:51:31;96892.47;;;24.64;31.37
56142;BME280;42018;48.588;10.836;2023-05-29T09:54:17;96891.06;;;24.70;31.35
56142;BME280;42018;48.588;10.836;2023-05-29T09:57:03;96884.81;;;24.34;31.07
56142;BME280;42018;48.588;10.836;2023-05-29T09:59:52;96896.94;;;24.25;29.93
56142;BME280;42018;48.588;10.836;2023-05-29T10:02:38;96897.13;;;24.32;29.91
56142;BME280;42018;48.588;10.836;2023-05-29T10:05:25;96893.63;;;24.82;32.12
56142;BME280;42018;48.588;10.836;2023-05-29T10:08:14;96895.38;;;25.10;29.79
56142;BME280;42018;48.588;10.836;2023-05-29T10:11:02;96886.56;;;25.52;30.03
56142;BME280;42018;48.588;10.836;2023-05-29T10:13:52;96885.97;;;25.43;29.72
56142;BME280;42018;48.588;10.836;2023-05-29T10:16:41;96881.16;;;25.13;28.84
56142;BME280;42018;48.588;10.836;2023-05-29T10:19:31;96883.88;;;24.97;28.15
56142;BME280;42018;48.588;10.836;2023-05-29T10:22:18;96886.53;;;24.94;28.41
56142;BME280;42018;48.588;10.836;2023-05-29T10:25:06;96882.31;;;24.61;28.84
56142;BME280;42018;48.588;10.836;2023-05-29T10:27:54;96882.06;;;25.01;29.75
56142;BME280;42018;48.588;10.836;2023-05-29T10:31:01;96883.25;;;24.84;28.37
56142;BME280;42018;48.588;10.836;2023-05-29T10:37:23;96876.38;;;25.68;27.95
56142;BME280;42018;48.588;10.836;2023-05-29T10:40:11;96869.16;;;25.76;28.22
56142;BME280;42018;48.588;10.836;2023-05-29T10:42:57;96866.03;;;25.97;27.79
56142;BME280;42018;48.588;10.836;2023-05-29T10:48:44;96874.47;;;25.69;26.74
56142;BME280;42018;48.588;10.836;2023-05-29T10:51:32;96872.56;;;25.92;27.55
56142;BME280;42018;48.588;10.836;2023-05-29T10:54:23;96866.53;;;25.60;27.35
56142;BME280;42018;48.588;10.836;2023-05-29T10:57:10;96864.16;;;25.78;27.01
56142;BME280;42018;48.588;10.836;2023-05-29T11:00:06;96871.44;;;25.74;26.84
56142;BME280;42018;48.588;10.836;2023-05-29T11:02:52;96868.72;;;25.74;26.15
56142;BME280;42018;48.588;10.836;2023-05-29T11:06:04;96871.00;;;25.49;26.71
56142;BME280;42018;48.588;10.836;2023-05-29T11:08:55;96864.88;;;25.32;27.82
56142;BME280;42018;48.588;10.836;2023-05-29T11:11:41;96865.91;;;25.90;27.52
56142;BME280;42018;48.588;10.836;2023-05-29T11:14:28;96862.84;;;25.91;25.98
56142;BME280;42018;48.588;10.836;2023-05-29T11:23:20;96869.75;;;26.08;26.20
56142;BME280;42018;48.588;10.836;2023-05-29T11:26:11;96875.59;;;25.87;26.03
56142;BME280;42018;48.588;10.836;2023-05-29T11:29:02;96863.50;;;26.08;26.27
56142;BME280;42018;48.588;10.836;2023-05-29T11:31:55;96870.19;;;26.37;26.64
56142;BME280;42018;48.588;10.836;2023-05-29T11:34:43;96861.28;;;26.63;25.65
56142;BME280;42018;48.588;10.836;2023-05-29T11:37:36;96857.03;;;26.95;26.06
56142;BME280;42018;48.588;10.836;2023-05-29T11:40:23;96862.97;;;26.74;24.28
56142;BME280;42018;48.588;10.836;2023-05-29T11:43:12;96876.41;;;26.90;25.52
56142;BME280;42018;48.588;10.836;2023-05-29T11:45:57;96865.72;;;26.48;24.00
56142;BME280;42018;48.588;10.836;2023-05-29T11:48:47;96867.19;;;26.68;25.81
56142;BME280;42018;48.588;10.836;2023-05-29T11:51:32;96864.97;;;26.78;24.66
56142;BME280;42018;48.588;10.836;2023-05-29T11:54:19;96855.03;;;27.19;25.41
56142;BME280;42018;48.588;10.836;2023-05-29T11:57:05;96854.44;;;27.36;25.20
56142;BME280;42018;48.588;10.836;2023-05-29T11:59:51;96852.59;;;27.44;24.74
56142;BME280;42018;48.588;10.836;2023-05-29T12:02:44;96860.50;;;27.60;23.88
56142;BME280;42018;48.588;10.836;2023-05-29T12:05:53;96854.78;;;26.44;23.93
56142;BME280;42018;48.588;10.836;2023-05-29T12:08:40;96853.75;;;26.53;23.90
56142;BME280;42018;48.588;10.836;2023-05-29T12:11:26;96850.44;;;26.96;23.87
56142;BME280;42018;48.588;10.836;2023-05-29T12:14:11;96855.44;;;27.58;24.23
56142;BME280;42018;48.588;10.836;2023-05-29T12:16:57;96849.44;;;27.42;24.66
56142;BME280;42018;48.588;10.836;2023-05-29T12:19:42;96852.16;;;27.42;24.35
56142;BME280;42018;48.588;10.836;2023-05-29T12:22:36;96857.94;;;27.07;23.86
56142;BME280;42018;48.588;10.836;2023-05-29T12:25:21;96851.94;;;27.58;24.78
56142;BME280;42018;48.588;10.836;2023-05-29T12:28:07;96858.28;;;27.32;24.22
56142;BME280;42018;48.588;10.836;2023-05-29T12:31:00;96853.03;;;27.87;24.14
56142;BME280;42018;48.588;10.836;2023-05-29T12:33:45;96854.00;;;27.68;23.57
56142;BME280;42018;48.588;10.836;2023-05-29T12:36:33;96852.50;;;28.19;24.07
56142;BME280;42018;48.588;10.836;2023-05-29T12:39:19;96858.16;;;27.21;23.04
56142;BME280;42018;48.588;10.836;2023-05-29T12:42:05;96854.88;;;27.42;24.56
56142;BME280;42018;48.588;10.836;2023-05-29T12:44:51;96852.00;;;27.61;23.92
56142;BME280;42018;48.588;10.836;2023-05-29T12:47:36;96845.72;;;27.20;22.18
56142;BME280;42018;48.588;10.836;2023-05-29T12:50:26;96855.78;;;27.53;22.73
56142;BME280;42018;48.588;10.836;2023-05-29T12:53:14;96848.91;;;27.66;22.69
56142;BME280;42018;48.588;10.836;2023-05-29T12:55:59;96846.56;;;28.06;22.18
56142;BME280;42018;48.588;10.836;2023-05-29T12:58:45;96842.00;;;28.21;23.94
56142;BME280;42018;48.588;10.836;2023-05-29T13:01:31;96847.03;;;28.70;23.91
56142;BME280;42018;48.588;10.836;2023-05-29T13:04:17;96844.34;;;28.19;22.63
56142;BME280;42018;48.588;10.836;2023-05-29T13:10:43;96849.25;;;27.61;22.68
56142;BME280;42018;48.588;10.836;2023-05-29T13:13:29;96845.78;;;28.05;22.51
56142;BME280;42018;48.588;10.836;2023-05-29T13:16:14;96844.09;;;28.38;22.49
56142;BME280;42018;48.588;10.836;2023-05-29T13:19:00;96839.69;;;28.23;22.06
56142;BME280;42018;48.588;10.836;2023-05-29T13:21:46;96846.22;;;27.29;23.83
56142;BME280;42018;48.588;10.836;2023-05-29T13:24:36;96846.75;;;27.45;23.08
56142;BME280;42018;48.588;10.836;2023-05-29T13:27:24;96835.66;;;27.61;22.82
56142;BME280;42018;48.588;10.836;2023-05-29T13:30:14;96838.88;;;28.19;22.72
56142;BME280;42018;48.588;10.836;2023-05-29T13:32:59;96832.91;;;28.50;22.94
56142;BME280;42018;48.588;10.836;2023-05-29T13:35:45;96838.25;;;28.36;23.05
56142;BME280;42018;48.588;10.836;2023-05-29T13:38:31;96833.63;;;28.40;22.88
56142;BME280;42018;48.588;10.836;2023-05-29T13:41:16;96827.22;;;28.80;22.72
56142;BME280;42018;48.588;10.836;2023-05-29T13:44:02;96829.19;;;28.87;21.69
56142;BME280;42018;48.588;10.836;2023-05-29T13:46:47;96805.41;;;28.87;22.78
56142;BME280;42018;48.588;10.836;2023-05-29T13:49:36;96827.63;;;28.24;23.01
56142;BME280;42018;48.588;10.836;2023-05-29T13:52:29;96822.44;;;28.04;23.99
56142;BME280;42018;48.588;10.836;2023-05-29T13:55:17;96820.88;;;28.58;23.95
56142;BME280;42018;48.588;10.836;2023-05-29T13:58:06;96811.63;;;28.81;22.94
56142;BME280;42018;48.588;10.836;2023-05-29T14:00:51;96808.94;;;28.88;23.52
56142;BME280;42018;48.588;10.836;2023-05-29T14:03:38;96810.78;;;28.66;22.84
56142;BME280;42018;48.588;10.836;2023-05-29T14:06:23;96805.19;;;28.41;22.92
56142;BME280;42018;48.588;10.836;2023-05-29T14:09:09;96804.94;;;28.64;24.38
56142;BME280;42018;48.588;10.836;2023-05-29T14:11:56;96796.72;;;28.57;22.42
56142;BME280;42018;48.588;10.836;2023-05-29T14:14:42;96798.91;;;27.82;22.58
56142;BME280;42018;48.588;10.836;2023-05-29T14:17:27;96797.56;;;28.09;21.98
56142;BME280;42018;48.588;10.836;2023-05-29T14:20:13;96803.59;;;27.85;22.54
56142;BME280;42018;48.588;10.836;2023-05-29T14:22:58;96802.59;;;28.04;23.38
56142;BME280;42018;48.588;10.836;2023-05-29T14:25:44;96797.06;;;27.93;22.31
56142;BME280;42018;48.588;10.836;2023-05-29T14:28:30;96805.78;;;27.68;22.85
56142;BME280;42018;48.588;10.836;2023-05-29T14:31:15;96795.75;;;27.39;21.87
56142;BME280;42018;48.588;10.836;2023-05-29T14:34:01;96801.50;;;27.30;23.38
56142;BME280;42018;48.588;10.836;2023-05-29T14:36:46;96807.41;;;27.36;21.76
56142;BME280;42018;48.588;10.836;2023-05-29T14:39:32;96800.22;;;27.58;22.31
56142;BME280;42018;48.588;10.836;2023-05-29T14:42:17;96801.47;;;27.27;22.55
56142;BME280;42018;48.588;10.836;2023-05-29T14:45:03;96806.28;;;27.07;22.05
56142;BME280;42018;48.588;10.836;2023-05-29T14:47:48;96798.84;;;26.70;22.11
56142;BME280;42018;48.588;10.836;2023-05-29T14:50:34;96794.72;;;26.80;21.27
56142;BME280;42018;48.588;10.836;2023-05-29T14:53:19;96795.34;;;26.69;22.44
56142;BME280;42018;48.588;10.836;2023-05-29T14:56:07;96798.72;;;26.93;23.02